Time;durP1;ratioP1;P1;durP2;ratioP2;P2;SDS_P1;SDS_P2;PMS_P1;PMS_P2;Temp;Humidity;BMP_temperature;BMP_pressure;BME280_temperature;BME280_humidity;BME280_pressure;Samples;Min_cycle;Max_cycle;Signal;HPM_P1;HPM_P2
2022/11/26 00:00:53;;;;;;;3.03;1.88;;;24.20;49.30;;;;;;4105491;28;20058;-53
2022/11/26 00:03:16;;;;;;;4.30;2.10;;;24.20;50.10;;;;;;4105691;28;20519;-50
2022/11/26 00:05:41;;;;;;;2.40;2.00;;;24.20;49.90;;;;;;4104605;28;20086;-50
2022/11/26 00:08:04;;;;;;;4.93;2.50;;;24.20;49.70;;;;;;4103608;28;20384;-46
2022/11/26 00:10:33;;;;;;;3.70;2.30;;;24.20;49.00;;;;;;4109302;28;20038;-48
2022/11/26 00:12:57;;;;;;;3.33;2.15;;;24.20;48.90;;;;;;4106818;28;20038;-49
2022/11/26 00:15:28;;;;;;;3.28;2.35;;;24.20;49.50;;;;;;4106327;28;20042;-52
2022/11/26 00:17:52;;;;;;;3.05;1.95;;;24.20;49.30;;;;;;4105447;28;20112;-50
2022/11/26 00:20:15;;;;;;;3.97;2.28;;;24.20;49.80;;;;;;4106736;28;20078;-49
2022/11/26 00:22:48;;;;;;;3.17;2.20;;;24.10;48.90;;;;;;4106077;28;20368;-46
2022/11/26 00:25:19;;;;;;;3.22;2.00;;;24.20;49.30;;;;;;4105280;28;20406;-48
2022/11/26 00:27:42;;;;;;;4.22;2.50;;;24.20;49.50;;;;;;4107299;28;20062;-49
2022/11/26 00:30:28;;;;;;;5.05;2.20;;;24.10;48.60;;;;;;4108363;28;20415;-45
2022/11/26 00:32:55;;;;;;;4.20;2.20;;;24.10;48.70;;;;;;4105629;28;20562;-50
2022/11/26 00:35:17;;;;;;;4.47;2.40;;;24.10;48.40;;;;;;4107283;28;20035;-51
2022/11/26 00:37:54;;;;;;;3.10;2.45;;;24.20;48.80;;;;;;4107320;28;20034;-49
2022/11/26 00:40:32;;;;;;;2.33;2.00;;;24.20;48.90;;;;;;4107254;28;20049;-49
2022/11/26 00:42:56;;;;;;;4.15;2.28;;;24.10;48.70;;;;;;4105562;28;20490;-49
2022/11/26 00:45:22;;;;;;;4.97;2.08;;;24.10;49.30;;;;;;4102949;28;20046;-51
2022/11/26 00:47:45;;;;;;;3.58;2.22;;;24.20;49.00;;;;;;4107817;28;20039;-52
2022/11/26 00:50:13;;;;;;;2.95;1.88;;;24.10;49.00;;;;;;4107986;28;20114;-50
2022/11/26 00:52:35;;;;;;;5.20;2.50;;;24.20;49.30;;;;;;4105245;28;20066;-51
2022/11/26 00:54:58;;;;;;;4.40;2.10;;;24.20;49.10;;;;;;4106783;28;20103;-51
2022/11/26 00:57:21;;;;;;;2.77;2.23;;;24.20;49.00;;;;;;4104976;28;20672;-51
2022/11/26 00:59:43;;;;;;;3.83;2.10;;;24.20;48.90;;;;;;4104090;28;20173;-48
2022/11/26 01:02:06;;;;;;;3.45;2.20;;;24.20;49.00;;;;;;4106354;28;20138;-53
2022/11/26 01:04:28;;;;;;;3.90;2.40;;;24.20;48.70;;;;;;4104603;28;20038;-51
2022/11/26 01:06:51;;;;;;;3.88;2.40;;;24.10;48.80;;;;;;4106161;28;20043;-53
2022/11/26 01:09:19;;;;;;;2.80;2.10;;;24.20;48.80;;;;;;4107544;28;20101;-52
2022/11/26 01:11:42;;;;;;;3.40;2.13;;;24.20;49.10;;;;;;4104765;28;20418;-50
2022/11/26 01:14:05;;;;;;;3.97;2.10;;;24.20;49.20;;;;;;4102875;28;20035;-49
2022/11/26 01:16:31;;;;;;;3.15;2.47;;;24.20;49.00;;;;;;4105013;28;20465;-52
2022/11/26 01:18:55;;;;;;;3.25;1.98;;;24.20;48.70;;;;;;4107198;28;20038;-51
2022/11/26 01:21:19;;;;;;;4.35;2.10;;;24.20;48.80;;;;;;4106853;28;20062;-51
2022/11/26 01:23:42;;;;;;;3.25;2.20;;;24.20;48.70;;;;;;4104507;28;20252;-51
2022/11/26 01:26:05;;;;;;;4.50;2.10;;;24.20;48.90;;;;;;4105249;28;20118;-49
2022/11/26 01:28:28;;;;;;;3.67;2.05;;;24.20;48.70;;;;;;4106675;28;20038;-48
2022/11/26 01:30:50;;;;;;;5.93;2.30;;;24.20;48.80;;;;;;4109781;28;20062;-52
2022/11/26 01:33:13;;;;;;;2.58;1.90;;;24.20;48.80;;;;;;4115175;28;20050;-50
2022/11/26 01:35:36;;;;;;;3.42;2.10;;;24.20;48.80;;;;;;4108291;28;20039;-51
2022/11/26 01:37:58;;;;;;;3.63;2.03;;;24.20;48.90;;;;;;4113628;28;20538;-52
2022/11/26 01:40:42;;;;;;;4.65;2.55;;;24.20;48.80;;;;;;4110860;28;20150;-52
2022/11/26 01:43:27;;;;;;;4.22;2.17;;;24.20;48.80;;;;;;4115335;28;20050;-47
2022/11/26 01:45:50;;;;;;;3.05;2.10;;;24.20;48.70;;;;;;4113328;28;20077;-49
2022/11/26 01:48:22;;;;;;;;;;;24.20;48.70;;;;;;4111303;28;20042;-49
2022/11/26 01:50:55;;;;;;;2.63;1.92;;;24.20;49.00;;;;;;4110693;28;19913;-51
2022/11/26 01:53:32;;;;;;;3.13;2.10;;;24.20;49.00;;;;;;4115364;28;20458;-50
2022/11/26 01:55:59;;;;;;;3.08;1.95;;;24.20;49.00;;;;;;4111181;28;20035;-48
2022/11/26 01:58:38;;;;;;;3.83;2.20;;;24.20;49.10;;;;;;4110068;28;20077;-48
2022/11/26 02:01:01;;;;;;;3.20;1.85;;;24.20;48.80;;;;;;4115366;28;20169;-48
2022/11/26 02:03:24;;;;;;;3.40;2.10;;;24.20;48.70;;;;;;4116713;28;20048;-52
2022/11/26 02:05:55;;;;;;;5.40;2.23;;;24.20;48.60;;;;;;4113369;28;20042;-51
2022/11/26 02:08:18;;;;;;;2.72;1.90;;;24.20;48.70;;;;;;4116333;28;20034;-52
2022/11/26 02:10:41;;;;;;;4.45;1.80;;;24.20;48.70;;;;;;4115072;28;20813;-50
2022/11/26 02:13:05;;;;;;;2.88;1.60;;;24.20;48.70;;;;;;4113733;28;20184;-50
2022/11/26 02:15:33;;;;;;;2.58;1.70;;;24.30;48.90;;;;;;4105578;28;20133;-50
2022/11/26 02:18:07;;;;;;;3.30;2.10;;;24.30;48.70;;;;;;4108460;28;20054;-49
2022/11/26 02:20:41;;;;;;;;;;;24.30;48.50;;;;;;4110265;28;20031;-52
2022/11/26 02:23:31;;;;;;;3.67;2.10;;;24.30;48.70;;;;;;4108431;28;19918;-52
2022/11/26 02:26:18;;;;;;;4.75;1.75;;;24.20;48.60;;;;;;4107839;28;20054;-48
2022/11/26 02:29:11;;;;;;;3.55;2.10;;;24.30;48.90;;;;;;4106924;28;20034;-51
2022/11/26 02:32:10;;;;;;;3.13;1.60;;;24.30;49.20;;;;;;4109195;28;20043;-49
2022/11/26 02:34:53;;;;;;;3.47;2.08;;;24.30;49.30;;;;;;4106597;28;20052;-48
2022/11/26 02:37:27;;;;;;;3.30;2.08;;;24.30;49.70;;;;;;4106034;28;20141;-52
2022/11/26 02:39:50;;;;;;;4.40;2.15;;;24.30;49.60;;;;;;4096432;28;20035;-50
2022/11/26 02:42:41;;;;;;;4.25;2.05;;;24.30;49.60;;;;;;4108071;28;20086;-47
2022/11/26 02:45:22;;;;;;;3.05;1.95;;;24.30;49.60;;;;;;4103686;28;20105;-49
2022/11/26 02:47:49;;;;;;;4.35;2.13;;;24.40;49.80;;;;;;4108448;28;20471;-47
2022/11/26 02:50:31;;;;;;;3.45;2.22;;;24.40;49.80;;;;;;4107458;28;20047;-50
2022/11/26 02:52:57;;;;;;;3.97;2.20;;;24.40;50.10;;;;;;4110192;28;20070;-49
2022/11/26 02:55:25;;;;;;;3.20;2.35;;;24.40;50.00;;;;;;4109327;28;20222;-52
2022/11/26 02:57:50;;;;;;;4.00;2.20;;;24.40;50.10;;;;;;4111699;28;20046;-50
2022/11/26 03:00:14;;;;;;;3.78;2.10;;;24.40;50.30;;;;;;4106624;28;20065;-49
2022/11/26 03:02:51;;;;;;;4.07;2.47;;;24.40;50.30;;;;;;4107777;28;20054;-47
2022/11/26 03:05:17;;;;;;;4.65;2.30;;;24.40;50.30;;;;;;4106404;28;20037;-49
2022/11/26 03:07:40;;;;;;;4.00;2.30;;;24.40;50.30;;;;;;4109558;28;20616;-47
2022/11/26 03:10:05;;;;;;;3.10;2.17;;;24.40;50.30;;;;;;4088952;28;20134;-50
2022/11/26 03:12:29;;;;;;;3.47;2.03;;;24.40;50.30;;;;;;4106123;28;20053;-45
2022/11/26 03:14:51;;;;;;;4.15;2.42;;;24.40;50.30;;;;;;4102637;28;20037;-49
2022/11/26 03:17:14;;;;;;;3.45;2.03;;;24.40;50.30;;;;;;4102604;28;20057;-46
2022/11/26 03:19:37;;;;;;;3.65;2.28;;;24.40;50.40;;;;;;4103698;28;20038;-45
2022/11/26 03:21:59;;;;;;;3.85;2.20;;;24.40;50.30;;;;;;4104380;28;20589;-51
2022/11/26 03:24:22;;;;;;;4.13;1.98;;;24.40;50.20;;;;;;4104290;28;20045;-47
2022/11/26 03:26:44;;;;;;;4.88;2.25;;;24.40;50.10;;;;;;4099940;28;20038;-48
2022/11/26 03:29:07;;;;;;;3.97;2.13;;;24.40;50.10;;;;;;4104647;28;20099;-52
2022/11/26 03:31:29;;;;;;;3.03;2.05;;;24.50;50.20;;;;;;4103797;28;20038;-47
2022/11/26 03:33:52;;;;;;;4.78;2.08;;;24.50;50.10;;;;;;4104626;28;20391;-52
2022/11/26 03:36:14;;;;;;;3.45;2.10;;;24.50;50.20;;;;;;4103011;28;20115;-49
2022/11/26 03:38:37;;;;;;;4.03;2.03;;;24.50;50.10;;;;;;4095184;28;20234;-50
2022/11/26 03:41:02;;;;;;;4.35;2.10;;;24.50;50.10;;;;;;4111399;28;20130;-49
2022/11/26 03:43:24;;;;;;;3.55;2.10;;;24.50;50.10;;;;;;4114953;28;20494;-51
2022/11/26 03:45:47;;;;;;;3.08;1.80;;;24.50;50.00;;;;;;4111487;28;20059;-49
2022/11/26 03:48:09;;;;;;;3.67;2.17;;;24.60;50.00;;;;;;4107036;28;20041;-51
2022/11/26 03:50:32;;;;;;;4.70;2.20;;;24.60;49.90;;;;;;4112667;28;20042;-48
2022/11/26 03:52:54;;;;;;;6.70;2.50;;;24.60;49.80;;;;;;4116173;28;20047;-50
2022/11/26 03:55:17;;;;;;;4.40;2.13;;;24.60;49.60;;;;;;4113465;28;20030;-48
2022/11/26 03:57:39;;;;;;;3.95;2.22;;;24.60;49.40;;;;;;4114500;28;20080;-52
2022/11/26 04:00:03;;;;;;;3.05;2.00;;;24.60;50.00;;;;;;4108756;28;20038;-49
2022/11/26 04:02:26;;;;;;;3.92;2.20;;;24.70;49.50;;;;;;4113139;28;20050;-50
2022/11/26 04:04:49;;;;;;;3.50;2.10;;;24.70;49.40;;;;;;4113565;28;20061;-49
2022/11/26 04:07:11;;;;;;;4.13;1.75;;;24.80;48.90;;;;;;4107624;28;20047;-49
2022/11/26 04:09:34;;;;;;;7.47;2.17;;;24.80;48.60;;;;;;4105259;28;20034;-51
2022/11/26 04:11:57;;;;;;;5.88;2.00;;;24.80;48.40;;;;;;4104133;28;20046;-49
2022/11/26 04:14:19;;;;;;;5.15;2.20;;;24.80;48.20;;;;;;4110413;28;20045;-51
2022/11/26 04:16:42;;;;;;;3.78;1.80;;;24.90;48.30;;;;;;4104123;28;20118;-49
2022/11/26 04:19:04;;;;;;;3.42;2.30;;;24.90;48.30;;;;;;4109591;28;20869;-47
2022/11/26 04:21:27;;;;;;;2.47;1.67;;;24.90;48.20;;;;;;4105904;28;20545;-50
2022/11/26 04:23:49;;;;;;;3.58;2.05;;;25.00;48.20;;;;;;4104424;28;20039;-51
2022/11/26 04:26:12;;;;;;;2.92;1.90;;;25.10;48.40;;;;;;4100394;28;20050;-53
2022/11/26 04:28:34;;;;;;;3.08;1.75;;;25.10;48.30;;;;;;4084971;28;20023;-51
2022/11/26 04:30:57;;;;;;;3.90;1.92;;;25.10;48.10;;;;;;4096210;28;20105;-50
2022/11/26 04:33:20;;;;;;;3.20;1.90;;;25.20;48.10;;;;;;4103386;28;20027;-53
2022/11/26 04:35:42;;;;;;;4.55;1.50;;;25.30;48.20;;;;;;4102469;28;20046;-51
2022/11/26 04:38:05;;;;;;;4.18;1.75;;;25.30;47.90;;;;;;4102825;28;20043;-50
2022/11/26 04:40:28;;;;;;;2.63;1.73;;;25.30;47.70;;;;;;4109951;28;20049;-51
2022/11/26 04:42:50;;;;;;;2.55;1.45;;;25.40;47.80;;;;;;4109926;28;20042;-52
2022/11/26 04:45:13;;;;;;;4.88;1.70;;;25.40;47.80;;;;;;4113663;28;20133;-52
2022/11/26 04:47:35;;;;;;;3.95;1.60;;;25.50;47.60;;;;;;4113478;28;20037;-51
2022/11/26 04:49:58;;;;;;;2.78;1.52;;;25.50;47.70;;;;;;4105898;28;20124;-52
2022/11/26 04:52:20;;;;;;;3.80;1.75;;;25.60;47.90;;;;;;4109477;28;20114;-50
2022/11/26 04:54:43;;;;;;;2.63;1.40;;;25.60;48.00;;;;;;4099454;28;20113;-50
2022/11/26 04:57:05;;;;;;;2.33;1.25;;;25.60;47.60;;;;;;4103936;28;20041;-52
2022/11/26 04:59:28;;;;;;;1.90;1.30;;;25.70;47.30;;;;;;4105977;28;20477;-50
2022/11/26 05:01:51;;;;;;;2.90;1.35;;;25.70;47.50;;;;;;4102340;28;20354;-49
2022/11/26 05:04:13;;;;;;;3.40;1.40;;;25.80;47.30;;;;;;4108606;28;20117;-49
2022/11/26 05:06:36;;;;;;;5.50;1.92;;;25.80;47.10;;;;;;4110193;28;20038;-52
2022/11/26 05:08:58;;;;;;;2.63;1.42;;;25.80;47.40;;;;;;4103956;28;20118;-51
2022/11/26 05:11:21;;;;;;;2.92;1.50;;;25.90;47.30;;;;;;4106277;28;20070;-50
2022/11/26 05:13:43;;;;;;;3.42;1.92;;;25.90;47.30;;;;;;4103320;28;20584;-52
2022/11/26 05:16:06;;;;;;;3.55;1.45;;;25.90;46.50;;;;;;4105616;28;20041;-52
2022/11/26 05:18:29;;;;;;;3.00;1.58;;;26.00;47.00;;;;;;4109040;28;20070;-49
2022/11/26 05:20:51;;;;;;;2.92;1.33;;;26.00;46.80;;;;;;4111627;28;20532;-46
2022/11/26 05:23:14;;;;;;;3.15;1.70;;;26.00;46.90;;;;;;4106026;28;20254;-47
2022/11/26 05:25:36;;;;;;;3.15;1.50;;;26.10;47.00;;;;;;4106227;28;20076;-47
2022/11/26 05:27:59;;;;;;;2.58;1.13;;;26.10;46.80;;;;;;4106267;28;20277;-49
2022/11/26 05:30:21;;;;;;;2.45;1.25;;;26.20;46.70;;;;;;4116853;28;20399;-49
2022/11/26 05:32:44;;;;;;;3.85;1.30;;;26.20;46.50;;;;;;4112695;28;20042;-48
2022/11/26 05:35:07;;;;;;;3.72;1.58;;;26.20;46.60;;;;;;4104052;28;20038;-50
2022/11/26 05:37:29;;;;;;;3.58;1.25;;;26.30;46.60;;;;;;4112412;28;20616;-49
2022/11/26 05:39:52;;;;;;;4.03;1.42;;;26.30;46.50;;;;;;4110444;28;20049;-47
2022/11/26 05:42:15;;;;;;;5.65;1.60;;;26.30;45.90;;;;;;4112520;28;20061;-50
2022/11/26 05:44:37;;;;;;;2.75;1.38;;;26.40;46.10;;;;;;4116120;28;20030;-51
2022/11/26 05:47:00;;;;;;;2.70;1.30;;;26.40;46.10;;;;;;4113952;28;20049;-47
2022/11/26 05:49:23;;;;;;;2.65;1.20;;;26.40;46.00;;;;;;4107899;28;20628;-47
2022/11/26 05:51:45;;;;;;;2.67;1.25;;;26.40;45.80;;;;;;4114111;28;20038;-50
2022/11/26 05:54:13;;;;;;;4.40;1.50;;;26.40;45.90;;;;;;4107857;28;20458;-46
2022/11/26 05:56:35;;;;;;;5.05;1.65;;;26.40;46.10;;;;;;4108446;28;20428;-49
2022/11/26 05:58:58;;;;;;;3.72;1.25;;;26.40;46.00;;;;;;4111025;28;20034;-46
2022/11/26 06:01:20;;;;;;;2.70;1.55;;;26.40;46.30;;;;;;4105275;28;20042;-48
2022/11/26 06:03:43;;;;;;;2.58;1.05;;;26.40;46.30;;;;;;4112280;28;20264;-48
2022/11/26 06:06:06;;;;;;;4.30;1.40;;;26.40;46.30;;;;;;4104665;28;20482;-50
2022/11/26 06:08:28;;;;;;;4.18;1.30;;;26.40;46.30;;;;;;4111962;28;20120;-48
2022/11/26 06:10:51;;;;;;;2.53;1.35;;;26.40;46.10;;;;;;4112308;28;20046;-51
2022/11/26 06:13:14;;;;;;;3.33;1.20;;;26.30;46.10;;;;;;4111751;28;20050;-47
2022/11/26 06:15:36;;;;;;;4.00;1.42;;;26.30;46.30;;;;;;4102932;28;20042;-48
2022/11/26 06:17:59;;;;;;;1.33;0.82;;;26.30;46.10;;;;;;4111474;28;20030;-48
2022/11/26 06:20:21;;;;;;;3.08;1.00;;;26.30;46.50;;;;;;4109341;28;20045;-50
2022/11/26 06:22:45;;;;;;;3.08;1.27;;;26.30;46.70;;;;;;4109459;28;21033;-48
2022/11/26 06:25:11;;;;;;;2.88;1.50;;;26.30;46.50;;;;;;4108779;28;20518;-50
2022/11/26 06:27:34;;;;;;;3.28;1.25;;;26.30;46.40;;;;;;4100900;28;20426;-49
2022/11/26 06:29:57;;;;;;;2.65;0.82;;;26.40;46.60;;;;;;4106077;28;20117;-47
2022/11/26 06:32:20;;;;;;;3.95;1.58;;;26.40;46.70;;;;;;4104510;28;20497;-46
2022/11/26 06:34:43;;;;;;;8.05;1.90;;;26.40;46.10;;;;;;4107041;28;20046;-50
2022/11/26 06:37:05;;;;;;;3.65;1.15;;;26.30;45.70;;;;;;4106519;28;20129;-49
2022/11/26 06:39:28;;;;;;;2.80;1.35;;;26.30;45.70;;;;;;4106049;28;20525;-50
2022/11/26 06:41:51;;;;;;;4.20;1.27;;;26.20;45.70;;;;;;4104017;28;20101;-50
2022/11/26 06:44:13;;;;;;;5.30;1.52;;;26.20;45.90;;;;;;4102179;28;20673;-56
2022/11/26 06:46:37;;;;;;;5.63;1.23;;;26.20;46.40;;;;;;4105523;28;20058;-49
2022/11/26 06:49:03;;;;;;;;;;;26.20;46.70;;;;;;4105639;28;20494;-55
2022/11/26 06:51:26;;;;;;;6.65;1.67;;;26.20;47.20;;;;;;4103035;28;20058;-53
2022/11/26 06:53:49;;;;;;;7.35;1.30;;;26.30;47.60;;;;;;4103686;28;20215;-55
2022/11/26 06:56:14;;;;;;;11.87;1.23;;;26.30;48.30;;;;;;4099654;28;20319;-56
2022/11/26 06:58:37;;;;;;;6.57;1.30;;;26.40;48.00;;;;;;4104751;28;20363;-47
2022/11/26 07:00:59;;;;;;;2.90;1.30;;;26.40;48.30;;;;;;4108912;28;20283;-48
2022/11/26 07:03:22;;;;;;;10.27;2.25;;;26.40;47.50;;;;;;4107319;28;20150;-45
2022/11/26 07:05:45;;;;;;;3.80;1.60;;;26.30;47.10;;;;;;4107795;28;20121;-45
2022/11/26 07:08:07;;;;;;;4.60;1.77;;;26.20;46.70;;;;;;4110176;28;20030;-47
2022/11/26 07:10:30;;;;;;;4.28;1.90;;;26.20;46.80;;;;;;4105646;28;20474;-48
2022/11/26 07:12:52;;;;;;;5.72;1.80;;;26.20;46.80;;;;;;4091018;28;20047;-49
2022/11/26 07:15:27;;;;;;;6.47;1.90;;;26.10;46.70;;;;;;4105990;28;20567;-52
2022/11/26 07:17:50;;;;;;;4.15;1.63;;;26.10;46.80;;;;;;4106970;28;20101;-47
2022/11/26 07:20:13;;;;;;;5.70;1.80;;;26.00;46.60;;;;;;4104260;28;20042;-52
2022/11/26 07:22:36;;;;;;;3.65;1.70;;;26.00;46.70;;;;;;4104133;28;20423;-48
2022/11/26 07:24:58;;;;;;;3.33;1.20;;;26.00;46.80;;;;;;4104036;28;20467;-52
2022/11/26 07:27:21;;;;;;;3.95;1.38;;;26.00;46.90;;;;;;4104017;28;20049;-52
2022/11/26 07:29:47;;;;;;;2.38;1.30;;;26.00;47.50;;;;;;4107056;28;20042;-51
2022/11/26 07:32:10;;;;;;;5.40;1.58;;;26.00;47.50;;;;;;4106567;28;20038;-50
2022/11/26 07:34:39;;;;;;;3.58;1.45;;;26.00;48.10;;;;;;4105726;28;20041;-56
2022/11/26 07:37:04;;;;;;;2.85;1.35;;;26.00;48.50;;;;;;4101497;28;20043;-50
2022/11/26 07:39:31;;;;;;;4.72;1.40;;;26.00;48.70;;;;;;4104763;28;20034;-53
2022/11/26 07:41:53;;;;;;;5.18;1.27;;;26.00;48.80;;;;;;4090074;28;20121;-48
2022/11/26 07:44:16;;;;;;;4.03;1.13;;;26.10;48.90;;;;;;4101305;28;20456;-54
2022/11/26 07:46:40;;;;;;;3.50;1.38;;;26.10;49.70;;;;;;4101117;28;20107;-51
2022/11/26 07:49:08;;;;;;;;;;;26.10;49.20;;;;;;4103514;28;20433;-53
2022/11/26 07:51:32;;;;;;;6.78;2.13;;;26.10;49.20;;;;;;4103195;28;19914;-48
2022/11/26 07:53:56;;;;;;;5.30;1.60;;;26.10;49.20;;;;;;4104165;28;20046;-53
2022/11/26 07:56:19;;;;;;;3.80;1.42;;;26.10;49.20;;;;;;4083835;28;20050;-54
2022/11/26 07:58:42;;;;;;;4.22;1.10;;;26.10;49.10;;;;;;4100635;28;20113;-48
2022/11/26 08:01:15;;;;;;;3.15;1.08;;;26.10;49.30;;;;;;4103701;28;20114;-51
2022/11/26 08:03:43;;;;;;;5.05;1.20;;;26.10;49.50;;;;;;4103724;28;20066;-52
2022/11/26 08:06:12;;;;;;;8.75;1.70;;;26.10;49.30;;;;;;4105468;28;20834;-53
2022/11/26 08:08:38;;;;;;;4.25;1.35;;;26.10;49.40;;;;;;4091039;28;20420;-55
2022/11/26 08:11:03;;;;;;;7.00;1.35;;;26.10;49.50;;;;;;4087413;28;20604;-50
2022/11/26 08:13:25;;;;;;;13.75;2.10;;;26.10;49.50;;;;;;4104259;28;20062;-49
2022/11/26 08:15:48;;;;;;;9.35;1.70;;;26.10;49.70;;;;;;4104944;28;20042;-52
2022/11/26 08:18:11;;;;;;;7.80;1.70;;;26.10;49.50;;;;;;4103687;28;20035;-48
2022/11/26 08:20:34;;;;;;;6.18;1.45;;;26.10;49.50;;;;;;4103015;28;20041;-53
2022/11/26 08:22:56;;;;;;;8.00;1.50;;;26.10;49.70;;;;;;4087938;28;20119;-54
2022/11/26 08:25:19;;;;;;;5.00;1.25;;;26.10;49.80;;;;;;4104012;28;20483;-54
2022/11/26 08:27:42;;;;;;;4.32;1.35;;;26.10;50.00;;;;;;4105160;28;20101;-54
2022/11/26 08:30:05;;;;;;;3.05;1.20;;;26.10;50.00;;;;;;4104329;28;20039;-53
2022/11/26 08:32:28;;;;;;;9.43;1.67;;;26.10;50.10;;;;;;4101359;28;20054;-52
2022/11/26 08:34:50;;;;;;;2.15;1.20;;;26.10;50.10;;;;;;4100263;28;20519;-54
2022/11/26 08:37:13;;;;;;;3.42;1.02;;;26.10;50.10;;;;;;4100619;28;20034;-50
2022/11/26 08:39:35;;;;;;;5.80;1.80;;;26.10;50.10;;;;;;4106465;28;20498;-49
2022/11/26 08:41:58;;;;;;;4.40;1.70;;;26.00;50.20;;;;;;4102609;28;20051;-51
2022/11/26 08:44:21;;;;;;;4.65;1.33;;;25.90;50.40;;;;;;4108500;28;20487;-51
2022/11/26 08:46:44;;;;;;;7.37;1.50;;;25.80;50.60;;;;;;4107591;28;20426;-51
2022/11/26 08:49:10;;;;;;;7.38;1.23;;;25.70;50.80;;;;;;4106827;28;20129;-51
2022/11/26 08:51:33;;;;;;;5.43;1.27;;;25.70;50.90;;;;;;4103894;28;20470;-54
2022/11/26 08:53:55;;;;;;;5.30;1.20;;;25.70;51.10;;;;;;4102116;28;20077;-55
2022/11/26 08:56:18;;;;;;;5.57;1.35;;;25.70;51.20;;;;;;4107384;28;20456;-52
2022/11/26 08:58:47;;;;;;;3.80;1.10;;;25.70;51.20;;;;;;4104703;28;20035;-56
2022/11/26 09:01:11;;;;;;;3.47;1.17;;;25.60;51.20;;;;;;4107427;28;20054;-58
2022/11/26 09:03:34;;;;;;;3.47;1.00;;;25.70;51.40;;;;;;4103292;28;20035;-59
2022/11/26 09:06:04;;;;;;;4.00;1.17;;;25.70;51.40;;;;;;4089773;28;20568;-55
2022/11/26 09:08:27;;;;;;;2.30;1.15;;;25.70;51.40;;;;;;4106117;28;20039;-51
2022/11/26 09:10:56;;;;;;;3.05;1.10;;;25.70;51.40;;;;;;4104360;28;20061;-50
2022/11/26 09:13:18;;;;;;;2.83;1.02;;;25.60;51.50;;;;;;4085941;28;20085;-52
2022/11/26 09:15:41;;;;;;;2.45;1.02;;;25.60;51.50;;;;;;4104050;28;20557;-53
2022/11/26 09:18:03;;;;;;;2.92;1.13;;;25.60;51.70;;;;;;4099542;28;20437;-53
2022/11/26 09:20:26;;;;;;;4.57;1.40;;;25.60;51.60;;;;;;4100909;28;20109;-49
2022/11/26 09:22:48;;;;;;;7.22;1.50;;;25.60;51.70;;;;;;4071274;28;20176;-51
2022/11/26 09:25:11;;;;;;;2.35;0.90;;;25.70;51.70;;;;;;4106906;28;20521;-49
2022/11/26 09:27:33;;;;;;;3.88;1.10;;;25.70;51.60;;;;;;4107242;28;20559;-54
2022/11/26 09:29:56;;;;;;;2.08;0.88;;;25.70;51.50;;;;;;4104940;28;20046;-52
2022/11/26 09:32:18;;;;;;;2.53;1.00;;;25.70;51.40;;;;;;4108390;28;20053;-51
2022/11/26 09:34:41;;;;;;;2.70;0.93;;;25.70;51.40;;;;;;4102703;28;20475;-51
2022/11/26 09:37:03;;;;;;;3.38;1.20;;;25.80;52.10;;;;;;4108343;28;20039;-49
2022/11/26 09:39:27;;;;;;;2.58;1.00;;;25.80;51.40;;;;;;4102007;28;20044;-45
2022/11/26 09:42:00;;;;;;;3.08;1.27;;;25.80;51.40;;;;;;4109298;28;20050;-49
2022/11/26 09:44:47;;;;;;;2.17;1.00;;;25.80;51.40;;;;;;4105860;28;20039;-48
2022/11/26 09:47:38;;;;;;;2.25;0.98;;;25.80;51.40;;;;;;4110274;28;20058;-48
2022/11/26 09:50:13;;;;;;;3.78;1.08;;;25.80;51.20;;;;;;4100877;28;20509;-50
2022/11/26 09:52:41;;;;;;;1.95;1.00;;;25.90;51.40;;;;;;4104989;28;20515;-52
2022/11/26 09:55:19;;;;;;;2.03;0.85;;;25.80;51.30;;;;;;4105773;28;20093;-53
2022/11/26 09:57:47;;;;;;;2.33;0.95;;;25.90;51.40;;;;;;4107507;28;20047;-50
2022/11/26 10:00:26;;;;;;;2.42;1.05;;;25.90;51.30;;;;;;4108600;28;20050;-51
2022/11/26 10:02:50;;;;;;;2.53;0.90;;;25.90;51.30;;;;;;4106318;28;20046;-53
2022/11/26 10:05:13;;;;;;;2.78;1.08;;;25.90;51.30;;;;;;4111373;28;20049;-48
2022/11/26 10:08:11;;;;;;;1.42;0.73;;;26.00;51.40;;;;;;4113048;28;20433;-50
2022/11/26 10:11:06;;;;;;;2.30;0.77;;;26.00;51.40;;;;;;4108525;28;20035;-55
2022/11/26 10:13:45;;;;;;;2.60;0.93;;;25.90;51.30;;;;;;4103534;28;20038;-47
2022/11/26 10:16:24;;;;;;;2.22;0.80;;;25.90;51.40;;;;;;4106889;28;20093;-49
2022/11/26 10:19:30;;;;;;;1.55;0.63;;;26.00;51.40;;;;;;4109877;28;20046;-54
2022/11/26 10:22:05;;;;;;;1.65;0.80;;;26.00;51.40;;;;;;4100816;28;20141;-51
2022/11/26 10:24:47;;;;;;;2.47;0.88;;;26.00;51.40;;;;;;4105378;28;20042;-48
2022/11/26 10:27:22;;;;;;;3.55;1.10;;;26.00;51.30;;;;;;4106409;28;20491;-56
2022/11/26 10:29:59;;;;;;;3.42;1.00;;;26.00;51.30;;;;;;4107535;28;20042;-53
2022/11/26 10:32:38;;;;;;;2.80;0.75;;;26.00;51.40;;;;;;4094269;28;20477;-48
2022/11/26 10:35:01;;;;;;;3.67;1.27;;;26.00;51.40;;;;;;4106568;28;20053;-48
2022/11/26 10:37:26;;;;;;;1.73;1.15;;;26.10;50.90;;;;;;4111474;28;20031;-54
2022/11/26 10:39:49;;;;;;;3.17;1.38;;;26.00;50.60;;;;;;4104220;28;20085;-50
2022/11/26 10:42:21;;;;;;;4.00;1.20;;;26.00;50.90;;;;;;4103704;28;20061;-50
2022/11/26 10:44:44;;;;;;;2.15;0.90;;;25.90;51.00;;;;;;4100819;28;20875;-50
2022/11/26 10:47:29;;;;;;;1.50;0.80;;;26.00;51.10;;;;;;4105616;28;20223;-52
2022/11/26 10:49:54;;;;;;;1.95;1.05;;;26.00;51.20;;;;;;4101368;28;20367;-48
2022/11/26 10:52:25;;;;;;;4.43;1.35;;;26.00;51.20;;;;;;4102673;28;20121;-50
2022/11/26 10:55:22;;;;;;;1.40;0.70;;;26.00;51.20;;;;;;4101459;28;20049;-50
2022/11/26 10:57:51;;;;;;;2.97;1.00;;;26.00;51.80;;;;;;4103863;28;20124;-51
2022/11/26 11:00:49;;;;;;;2.35;0.90;;;26.00;51.20;;;;;;4094041;28;20205;-50
2022/11/26 11:03:39;;;;;;;2.95;1.02;;;26.00;51.20;;;;;;4037304;29;20036;-49
2022/11/26 11:06:20;;;;;;;9.30;1.30;;;26.00;51.30;;;;;;4103976;28;20077;-51
2022/11/26 11:08:42;;;;;;;3.75;1.10;;;26.00;51.20;;;;;;4091749;28;20078;-54
2022/11/26 11:11:17;;;;;;;10.48;1.05;;;26.00;51.30;;;;;;4105553;28;20073;-51
2022/11/26 11:13:45;;;;;;;2.63;0.75;;;26.00;51.30;;;;;;4105005;28;20082;-54
2022/11/26 11:16:09;;;;;;;2.75;0.85;;;26.00;51.30;;;;;;4104176;28;20113;-56
2022/11/26 11:18:34;;;;;;;;;;;25.90;51.30;;;;;;4108808;28;20043;-53
2022/11/26 11:20:59;;;;;;;4.15;1.00;;;25.90;51.50;;;;;;4105277;28;20746;-57
2022/11/26 11:23:28;;;;;;;2.38;1.02;;;25.90;51.50;;;;;;4104843;28;20069;-52
2022/11/26 11:26:15;;;;;;;2.15;1.00;;;25.90;51.60;;;;;;4105519;28;20045;-53
2022/11/26 11:28:41;;;;;;;3.25;1.23;;;25.90;51.50;;;;;;4106846;28;20027;-54
2022/11/26 11:31:11;;;;;;;2.15;1.05;;;25.90;51.50;;;;;;4106953;28;20102;-51
2022/11/26 11:33:33;;;;;;;4.90;1.33;;;25.90;51.70;;;;;;4105878;28;20105;-53
2022/11/26 11:36:13;;;;;;;2.22;0.93;;;25.90;51.80;;;;;;4107970;28;20041;-52
2022/11/26 11:38:57;;;;;;;4.07;1.25;;;25.90;51.60;;;;;;4106332;28;20214;-52
2022/11/26 11:41:33;;;;;;;4.63;0.98;;;26.00;51.60;;;;;;4098988;28;20333;-52
2022/11/26 11:44:14;;;;;;;2.30;0.75;;;26.00;51.50;;;;;;4101939;28;20109;-49
2022/11/26 11:46:51;;;;;;;6.70;1.08;;;26.00;51.40;;;;;;4105056;28;20668;-55
2022/11/26 11:49:25;;;;;;;1.98;0.95;;;26.00;51.40;;;;;;4108557;28;20041;-54
2022/11/26 11:51:57;;;;;;;2.25;0.80;;;26.00;51.30;;;;;;4101298;28;20042;-48
2022/11/26 11:54:49;;;;;;;3.70;0.90;;;26.00;51.30;;;;;;4103929;28;20038;-53
2022/11/26 11:57:20;;;;;;;3.67;0.90;;;26.00;51.20;;;;;;4077211;28;20138;-56
2022/11/26 12:00:12;;;;;;;1.95;0.93;;;26.00;51.20;;;;;;4103296;28;20101;-51
2022/11/26 12:02:54;;;;;;;2.30;0.90;;;26.00;51.20;;;;;;4105169;28;20078;-58
2022/11/26 12:05:40;;;;;;;1.42;0.75;;;26.00;51.20;;;;;;4104687;28;20447;-54
2022/11/26 12:08:20;;;;;;;2.53;0.90;;;26.00;51.30;;;;;;4103404;28;20240;-48
2022/11/26 12:11:25;;;;;;;3.03;1.00;;;26.10;51.30;;;;;;4103809;28;20107;-50
2022/11/26 12:14:00;;;;;;;2.85;0.90;;;26.00;51.30;;;;;;4051776;28;20121;-50
2022/11/26 12:16:26;;;;;;;1.90;0.82;;;26.00;51.20;;;;;;4103694;28;20041;-50
2022/11/26 12:19:36;;;;;;;3.53;1.13;;;26.00;51.20;;;;;;4105400;28;20067;-54
2022/11/26 12:22:21;;;;;;;3.30;1.20;;;26.00;51.30;;;;;;4045892;29;20060;-52
2022/11/26 12:25:03;;;;;;;2.30;1.08;;;26.00;51.30;;;;;;4051275;29;20641;-52
2022/11/26 12:28:03;;;;;;;3.65;1.27;;;25.90;51.30;;;;;;4100488;28;20042;-49
2022/11/26 12:30:43;;;;;;;2.22;1.17;;;25.90;51.30;;;;;;4102155;28;20030;-51
2022/11/26 12:33:15;;;;;;;3.88;1.30;;;25.90;51.40;;;;;;4102197;28;20039;-52
2022/11/26 12:35:55;;;;;;;1.98;0.90;;;25.90;51.40;;;;;;4106186;28;20117;-53
2022/11/26 12:38:47;;;;;;;2.65;1.20;;;25.90;51.40;;;;;;4107501;28;20107;-51
2022/11/26 12:41:19;;;;;;;2.63;1.20;;;25.90;51.50;;;;;;4101918;28;21300;-52
2022/11/26 12:44:00;;;;;;;3.15;0.95;;;25.80;51.40;;;;;;4108010;28;20038;-58
2022/11/26 12:46:46;;;;;;;3.33;1.17;;;25.80;51.40;;;;;;4103636;28;20105;-58
2022/11/26 12:49:38;;;;;;;2.38;0.90;;;25.80;51.40;;;;;;4109053;28;20390;-54
2022/11/26 12:52:23;;;;;;;3.15;1.05;;;25.80;51.40;;;;;;4103033;28;20105;-56